createdAt,value
2023-04-12T00:00:06.220Z,94687.00
2023-04-12T00:01:06.258Z,94685.00
2023-04-12T00:02:06.395Z,94683.00
2023-04-12T00:03:06.493Z,94683.00
2023-04-12T00:04:06.516Z,94679.00
2023-04-12T00:05:06.532Z,94675.00
2023-04-12T00:06:06.540Z,94675.00
2023-04-12T00:07:06.531Z,94671.00
2023-04-12T00:08:06.613Z,94675.00
2023-04-12T00:09:06.648Z,94675.00
2023-04-12T00:10:06.704Z,94671.00
2023-04-12T00:11:06.766Z,94671.00
2023-04-12T00:12:06.810Z,94665.00
2023-04-12T00:13:06.859Z,94663.00
2023-04-12T00:14:06.922Z,94661.00
2023-04-12T00:15:08.288Z,94665.00
2023-04-12T00:16:07.071Z,94661.00
2023-04-12T00:17:07.035Z,94659.00
2023-04-12T00:18:07.138Z,94657.00
2023-04-12T00:19:07.165Z,94657.00
2023-04-12T00:20:07.200Z,94651.00
2023-04-12T00:21:07.294Z,94649.00
2023-04-12T00:22:07.317Z,94647.00
2023-04-12T00:23:07.366Z,94647.00
2023-04-12T00:24:07.444Z,94646.00
2023-04-12T00:25:07.505Z,94644.00
2023-04-12T00:26:07.568Z,94642.00
2023-04-12T00:27:07.583Z,94640.00
2023-04-12T00:28:07.675Z,94640.00
2023-04-12T00:29:07.687Z,94640.00
2023-04-12T00:30:07.763Z,94640.00
2023-04-12T00:31:07.866Z,94638.00
2023-04-12T00:32:07.881Z,94638.00
2023-04-12T00:33:07.905Z,94640.00
2023-04-12T00:34:07.951Z,94640.00
2023-04-12T00:35:08.026Z,94636.00
2023-04-12T00:36:08.102Z,94640.00
2023-04-12T00:37:08.133Z,94632.00
2023-04-12T00:38:08.198Z,94634.00
2023-04-12T00:39:08.229Z,94632.00
2023-04-12T00:40:08.344Z,94632.00
2023-04-12T00:41:08.344Z,94624.00
2023-04-12T00:42:08.453Z,94624.00
2023-04-12T00:43:10.473Z,94622.00
2023-04-12T00:44:08.515Z,94620.00
2023-04-12T00:45:08.579Z,94622.00
2023-04-12T00:46:08.649Z,94622.00
2023-04-12T00:47:08.804Z,94620.00
2023-04-12T00:48:08.781Z,94620.00
2023-04-12T00:49:08.753Z,94618.00
2023-04-12T00:50:08.819Z,94616.00
2023-04-12T00:51:08.921Z,94614.00
2023-04-12T00:52:08.976Z,94612.00
2023-04-12T00:53:08.995Z,94610.00
2023-04-12T00:54:09.045Z,94610.00
2023-04-12T00:55:09.107Z,94608.00
2023-04-12T00:56:09.161Z,94610.00
2023-04-12T00:57:09.193Z,94610.00
2023-04-12T00:58:09.242Z,94608.00
2023-04-12T00:59:09.330Z,94608.00
2023-04-12T01:00:09.362Z,94608.00
2023-04-12T01:01:09.453Z,94608.00
2023-04-12T01:02:09.576Z,94608.00
2023-04-12T01:03:09.657Z,94606.00
2023-04-12T01:04:09.650Z,94604.00
2023-04-12T01:05:09.632Z,94604.00
2023-04-12T01:06:09.771Z,94602.00
2023-04-12T01:07:09.733Z,94602.00
2023-04-12T01:08:09.819Z,94602.00
2023-04-12T01:09:09.859Z,94602.00
2023-04-12T01:10:09.964Z,94606.00
2023-04-12T01:11:09.972Z,94602.00
2023-04-12T01:12:10.093Z,94602.00
2023-04-12T01:13:10.087Z,94604.00
2023-04-12T01:14:10.216Z,94601.00
2023-04-12T01:15:10.213Z,94595.00
2023-04-12T01:16:10.272Z,94595.00
2023-04-12T01:17:10.347Z,94597.00
2023-04-12T01:18:10.421Z,94595.00
2023-04-12T01:19:10.481Z,94593.00
2023-04-12T01:20:10.512Z,94595.00
2023-04-12T01:21:10.589Z,94589.00
2023-04-12T01:22:10.664Z,94591.00
2023-04-12T01:23:10.694Z,94587.00
2023-04-12T01:24:10.784Z,94583.00
2023-04-12T01:25:10.817Z,94583.00
2023-04-12T01:26:10.943Z,94583.00
2023-04-12T01:27:10.943Z,94581.00
2023-04-12T01:28:11.002Z,94581.00
2023-04-12T01:29:11.055Z,94581.00
2023-04-12T01:30:11.154Z,94579.00
2023-04-12T01:31:11.193Z,94575.00
2023-04-12T01:32:11.247Z,94567.00
2023-04-12T01:33:11.280Z,94571.00
2023-04-12T01:34:11.321Z,94567.00
2023-04-12T01:35:11.394Z,94567.00
2023-04-12T01:36:11.530Z,94567.00
2023-04-12T01:37:11.491Z,94565.00
2023-04-12T01:38:11.604Z,94561.00
2023-04-12T01:39:11.654Z,94565.00
2023-04-12T01:40:11.706Z,94565.00
2023-04-12T01:41:11.751Z,94557.00
2023-04-12T01:42:11.827Z,94561.00
2023-04-12T01:43:11.873Z,94559.00
2023-04-12T01:44:11.886Z,94552.00
2023-04-12T01:45:11.965Z,94552.00
2023-04-12T01:46:12.067Z,94557.00
2023-04-12T01:47:12.077Z,94554.00
2023-04-12T01:48:12.177Z,94555.00
2023-04-12T01:49:12.240Z,94555.00
2023-04-12T01:50:12.257Z,94557.00
2023-04-12T01:51:12.335Z,94555.00
2023-04-12T01:52:12.351Z,94554.00
2023-04-12T01:53:12.440Z,94554.00
2023-04-12T01:54:12.465Z,94554.00
2023-04-12T01:55:12.539Z,94554.00
2023-04-12T01:56:12.605Z,94554.00
2023-04-12T01:57:12.659Z,94554.00
2023-04-12T01:58:12.693Z,94555.00
2023-04-12T01:59:12.732Z,94555.00
2023-04-12T02:00:12.789Z,94554.00
2023-04-12T02:01:12.871Z,94554.00
2023-04-12T02:02:12.998Z,94552.00
2023-04-12T02:03:13.150Z,94552.00
2023-04-12T02:04:13.140Z,94552.00
2023-04-12T02:05:13.047Z,94550.00
2023-04-12T02:06:13.112Z,94552.00
2023-04-12T02:07:13.155Z,94548.00
2023-04-12T02:08:13.228Z,94544.00
2023-04-12T02:09:13.268Z,94544.00
2023-04-12T02:10:13.313Z,94546.00
2023-04-12T02:11:13.391Z,94548.00
2023-04-12T02:12:13.414Z,94550.00
2023-04-12T02:13:13.474Z,94550.00
2023-04-12T02:14:13.577Z,94550.00
2023-04-12T02:15:13.598Z,94550.00
2023-04-12T02:16:13.690Z,94546.00
2023-04-12T02:17:13.692Z,94546.00
2023-04-12T02:18:13.872Z,94550.00
2023-04-12T02:19:13.832Z,94550.00
2023-04-12T02:20:13.866Z,94552.00
2023-04-12T02:21:13.949Z,94552.00
2023-04-12T02:22:14.000Z,94552.00
2023-04-12T02:23:14.064Z,94552.00
2023-04-12T02:24:14.136Z,94552.00
2023-04-12T02:25:14.218Z,94554.00
2023-04-12T02:26:14.228Z,94552.00
2023-04-12T02:27:14.279Z,94552.00
2023-04-12T02:28:14.946Z,94552.00
2023-04-12T02:29:14.402Z,94550.00
2023-04-12T02:30:14.453Z,94554.00
2023-04-12T02:31:14.629Z,94554.00
2023-04-12T02:32:14.588Z,94554.00
2023-04-12T02:33:14.648Z,94555.00
2023-04-12T02:34:14.703Z,94555.00
2023-04-12T02:35:14.761Z,94555.00
2023-04-12T02:36:14.819Z,94555.00
2023-04-12T02:37:14.895Z,94554.00
2023-04-12T02:38:14.940Z,94554.00
2023-04-12T02:39:15.083Z,94559.00
2023-04-12T02:40:15.087Z,94559.00
2023-04-12T02:41:15.162Z,94559.00
2023-04-12T02:42:15.198Z,94559.00
2023-04-12T02:43:15.258Z,94559.00
2023-04-12T02:44:15.317Z,94563.00
2023-04-12T02:45:15.454Z,94559.00
2023-04-12T02:46:15.453Z,94561.00
2023-04-12T02:47:15.515Z,94561.00
2023-04-12T02:48:15.565Z,94561.00
2023-04-12T02:49:15.609Z,94559.00
2023-04-12T02:50:15.660Z,94559.00
2023-04-12T02:51:15.770Z,94557.00
2023-04-12T02:52:15.816Z,94557.00
2023-04-12T02:53:15.868Z,94557.00
2023-04-12T02:54:15.942Z,94557.00
2023-04-12T02:55:15.988Z,94559.00
2023-04-12T02:56:16.058Z,94557.00
2023-04-12T02:57:16.144Z,94559.00
2023-04-12T02:58:16.187Z,94559.00
2023-04-12T02:59:16.233Z,94555.00
2023-04-12T03:00:16.337Z,94555.00
2023-04-12T03:01:16.415Z,94557.00
2023-04-12T03:02:16.479Z,94554.00
2023-04-12T03:03:16.621Z,94554.00
2023-04-12T03:04:16.702Z,94557.00
2023-04-12T03:05:16.624Z,94555.00
2023-04-12T03:06:16.708Z,94554.00
2023-04-12T03:07:16.754Z,94554.00
2023-04-12T03:08:16.838Z,94555.00
2023-04-12T03:09:16.894Z,94554.00
2023-04-12T03:10:16.952Z,94554.00
2023-04-12T03:11:17.050Z,94555.00
2023-04-12T03:12:17.144Z,94554.00
2023-04-12T03:13:17.140Z,94552.00
2023-04-12T03:14:17.208Z,94552.00
2023-04-12T03:15:17.271Z,94550.00
2023-04-12T03:16:17.496Z,94550.00
2023-04-12T03:17:17.415Z,94550.00
2023-04-12T03:18:17.484Z,94552.00
2023-04-12T03:19:17.528Z,94550.00
2023-04-12T03:20:17.612Z,94550.00
2023-04-12T03:21:17.667Z,94548.00
2023-04-12T03:22:17.730Z,94550.00
2023-04-12T03:23:17.793Z,94552.00
2023-04-12T03:24:17.847Z,94548.00
2023-04-12T03:25:17.893Z,94544.00
2023-04-12T03:26:17.983Z,94544.00
2023-04-12T03:27:18.032Z,94544.00
2023-04-12T03:28:18.158Z,94546.00
2023-04-12T03:29:18.187Z,94544.00
2023-04-12T03:30:18.238Z,94546.00
2023-04-12T03:31:18.356Z,94546.00
2023-04-12T03:32:18.410Z,94544.00
2023-04-12T03:33:18.459Z,94546.00
2023-04-12T03:34:18.483Z,94546.00
2023-04-12T03:35:18.610Z,94548.00
2023-04-12T03:36:18.628Z,94548.00
2023-04-12T03:37:18.692Z,94550.00
2023-04-12T03:38:18.755Z,94550.00
2023-04-12T03:39:18.792Z,94550.00
2023-04-12T03:40:18.878Z,94552.00
2023-04-12T03:41:18.953Z,94552.00
2023-04-12T03:42:32.218Z,94552.00
2023-04-12T03:43:20.987Z,94550.00
2023-04-12T03:44:18.951Z,94546.00
2023-04-12T03:45:19.009Z,94546.00
2023-04-12T03:46:19.029Z,94548.00
2023-04-12T03:47:19.016Z,94544.00
2023-04-12T03:48:18.985Z,94542.00
2023-04-12T03:49:18.936Z,94540.00
2023-04-12T03:50:19.004Z,94540.00
2023-04-12T03:51:19.076Z,94540.00
2023-04-12T03:52:19.107Z,94540.00
2023-04-12T03:53:19.189Z,94540.00
2023-04-12T03:54:19.269Z,94538.00
2023-04-12T03:55:19.340Z,94536.00
2023-04-12T03:56:19.383Z,94532.00
2023-04-12T03:57:19.442Z,94532.00
2023-04-12T03:58:19.505Z,94528.00
2023-04-12T03:59:19.614Z,94530.00
2023-04-12T04:00:19.626Z,94530.00
2023-04-12T04:01:19.673Z,94528.00
2023-04-12T04:02:19.769Z,94528.00
2023-04-12T04:03:19.833Z,94526.00
2023-04-12T04:04:19.945Z,94528.00
2023-04-12T04:05:19.973Z,94530.00
2023-04-12T04:06:19.986Z,94530.00
2023-04-12T04:07:20.021Z,94532.00
2023-04-12T04:08:20.083Z,94530.00
2023-04-12T04:09:20.198Z,94528.00
2023-04-12T04:10:20.189Z,94528.00
2023-04-12T04:11:20.310Z,94528.00
2023-04-12T04:12:20.320Z,94526.00
2023-04-12T04:13:20.368Z,94528.00
2023-04-12T04:14:20.461Z,94524.00
2023-04-12T04:15:20.494Z,94524.00
2023-04-12T04:16:20.614Z,94526.00
2023-04-12T04:17:20.665Z,94526.00
2023-04-12T04:18:20.664Z,94526.00
2023-04-12T04:19:20.694Z,94524.00
2023-04-12T04:20:20.782Z,94524.00
2023-04-12T04:21:20.776Z,94524.00
2023-04-12T04:22:20.892Z,94522.00
2023-04-12T04:23:20.943Z,94522.00
2023-04-12T04:24:20.988Z,94520.00
2023-04-12T04:25:21.076Z,94520.00
2023-04-12T04:26:21.107Z,94518.00
2023-04-12T04:27:21.136Z,94514.00
2023-04-12T04:28:21.222Z,94512.00
2023-04-12T04:29:21.265Z,94510.00
2023-04-12T04:30:21.460Z,94508.00
2023-04-12T04:31:21.545Z,94506.00
2023-04-12T04:32:21.562Z,94504.00
2023-04-12T04:33:21.564Z,94506.00
2023-04-12T04:34:21.591Z,94504.00
2023-04-12T04:35:21.753Z,94506.00
2023-04-12T04:36:21.752Z,94506.00
2023-04-12T04:37:21.790Z,94502.00
2023-04-12T04:38:21.856Z,94502.00
2023-04-12T04:39:21.912Z,94504.00
2023-04-12T04:40:22.008Z,94502.00
2023-04-12T04:41:22.088Z,94500.00
2023-04-12T04:42:22.089Z,94500.00
2023-04-12T04:43:22.159Z,94499.00
2023-04-12T04:44:22.231Z,94499.00
2023-04-12T04:45:22.324Z,94502.00
2023-04-12T04:46:22.389Z,94499.00
2023-04-12T04:47:22.445Z,94497.00
2023-04-12T04:48:22.490Z,94497.00
2023-04-12T04:49:22.552Z,94500.00
2023-04-12T04:50:22.633Z,94502.00
2023-04-12T04:51:22.715Z,94502.00
2023-04-12T04:52:22.780Z,94500.00
2023-04-12T04:53:22.836Z,94499.00
2023-04-12T04:54:22.884Z,94497.00
2023-04-12T04:55:22.921Z,94495.00
2023-04-12T04:56:23.016Z,94497.00
2023-04-12T04:57:23.015Z,94495.00
2023-04-12T04:58:23.111Z,94497.00
2023-04-12T04:59:23.165Z,94497.00
2023-04-12T05:00:23.236Z,94497.00
2023-04-12T05:01:23.336Z,94495.00
2023-04-12T05:02:23.458Z,94495.00
2023-04-12T05:03:23.478Z,94495.00
2023-04-12T05:04:23.526Z,94499.00
2023-04-12T05:05:23.622Z,94504.00
2023-04-12T05:06:23.664Z,94502.00
2023-04-12T05:07:23.698Z,94502.00
2023-04-12T05:08:23.744Z,94504.00
2023-04-12T05:09:23.818Z,94502.00
2023-04-12T05:10:23.866Z,94502.00
2023-04-12T05:11:23.910Z,94500.00
2023-04-12T05:12:23.988Z,94502.00
2023-04-12T05:13:24.038Z,94502.00
2023-04-12T05:14:24.110Z,94500.00
2023-04-12T05:15:24.201Z,94504.00
2023-04-12T05:16:24.290Z,94502.00
2023-04-12T05:17:24.287Z,94500.00
2023-04-12T05:18:24.405Z,94497.00
2023-04-12T05:19:24.444Z,94500.00
2023-04-12T05:20:24.463Z,94500.00
2023-04-12T05:21:24.696Z,94499.00
2023-04-12T05:22:24.616Z,94499.00
2023-04-12T05:23:24.674Z,94497.00
2023-04-12T05:24:24.736Z,94497.00
2023-04-12T05:25:24.755Z,94497.00
2023-04-12T05:26:24.854Z,94497.00
2023-04-12T05:27:24.899Z,94497.00
2023-04-12T05:28:24.949Z,94495.00
2023-04-12T05:29:24.995Z,94495.00
2023-04-12T05:30:25.076Z,94495.00
2023-04-12T05:31:25.199Z,94493.00
2023-04-12T05:32:25.222Z,94491.00
2023-04-12T05:33:25.258Z,94493.00
2023-04-12T05:34:25.306Z,94487.00
2023-04-12T05:35:25.401Z,94485.00
2023-04-12T05:36:25.525Z,94489.00
2023-04-12T05:37:25.461Z,94493.00
2023-04-12T05:38:25.563Z,94495.00
2023-04-12T05:39:25.617Z,94491.00
2023-04-12T05:40:25.644Z,94491.00
2023-04-12T05:41:25.713Z,94493.00
2023-04-12T05:42:25.781Z,94487.00
2023-04-12T05:43:25.861Z,94489.00
2023-04-12T05:44:25.893Z,94487.00
2023-04-12T05:45:25.917Z,94487.00
2023-04-12T05:46:26.013Z,94489.00
2023-04-12T05:47:26.029Z,94483.00
2023-04-12T05:48:26.071Z,94489.00
2023-04-12T05:49:26.133Z,94481.00
2023-04-12T05:50:26.185Z,94477.00
2023-04-12T05:51:39.833Z,94477.00
2023-04-12T05:52:27.156Z,94473.00
2023-04-12T05:53:26.134Z,94477.00
2023-04-12T05:54:26.190Z,94475.00
2023-04-12T05:55:26.161Z,94471.00
2023-04-12T05:56:26.549Z,94469.00
2023-04-12T05:57:26.137Z,94471.00
2023-04-12T05:58:26.117Z,94469.00
2023-04-12T05:59:26.134Z,94471.00
2023-04-12T06:00:26.159Z,94469.00
2023-04-12T06:01:26.135Z,94465.00
2023-04-12T06:02:26.462Z,94463.00
2023-04-12T06:03:26.207Z,94463.00
2023-04-12T06:04:34.865Z,94463.00
2023-04-12T06:05:27.133Z,94459.00
2023-04-12T06:06:26.100Z,94457.00
2023-04-12T06:07:26.679Z,94457.00
2023-04-12T06:08:26.098Z,94455.00
2023-04-12T06:09:26.088Z,94455.00
2023-04-12T06:10:26.059Z,94457.00
2023-04-12T06:11:26.049Z,94457.00
2023-04-12T06:12:26.047Z,94453.00
2023-04-12T06:13:26.042Z,94452.00
2023-04-12T06:14:26.017Z,94452.00
2023-04-12T06:15:26.008Z,94453.00
2023-04-12T06:16:26.064Z,94450.00
2023-04-12T06:17:26.067Z,94446.00
2023-04-12T06:18:25.991Z,94446.00
2023-04-12T06:19:25.982Z,94442.00
2023-04-12T06:20:26.026Z,94440.00
2023-04-12T06:21:26.012Z,94440.00
2023-04-12T06:22:25.963Z,94436.00
2023-04-12T06:23:25.987Z,94432.00
2023-04-12T06:24:25.984Z,94438.00
2023-04-12T06:25:26.076Z,94436.00
2023-04-12T06:26:26.090Z,94438.00
2023-04-12T06:27:26.141Z,94432.00
2023-04-12T06:28:26.211Z,94430.00
2023-04-12T06:29:26.289Z,94428.00
2023-04-12T06:30:26.345Z,94426.00
2023-04-12T06:31:26.480Z,94424.00
2023-04-12T06:32:33.585Z,94426.00
2023-04-12T06:33:26.406Z,94428.00
2023-04-12T06:34:26.381Z,94424.00
2023-04-12T06:35:26.390Z,94426.00
2023-04-12T06:36:26.386Z,94426.00
2023-04-12T06:37:26.421Z,94424.00
2023-04-12T06:38:26.493Z,94424.00
2023-04-12T06:39:26.438Z,94424.00
2023-04-12T06:40:26.388Z,94420.00
2023-04-12T06:41:26.360Z,94418.00
2023-04-12T06:42:26.366Z,94420.00
2023-04-12T06:43:26.352Z,94420.00
2023-04-12T06:44:26.379Z,94418.00
2023-04-12T06:45:26.355Z,94412.00
2023-04-12T06:46:26.353Z,94412.00
2023-04-12T06:47:26.604Z,94412.00
2023-04-12T06:48:26.291Z,94412.00
2023-04-12T06:49:26.323Z,94412.00
2023-04-12T06:50:26.395Z,94410.00
2023-04-12T06:51:26.341Z,94408.00
2023-04-12T06:52:26.723Z,94406.00
2023-04-12T06:53:26.309Z,94402.00
2023-04-12T06:54:26.529Z,94404.00
2023-04-12T06:55:26.262Z,94406.00
2023-04-12T06:56:26.320Z,94402.00
2023-04-12T06:57:26.356Z,94402.00
2023-04-12T06:58:26.397Z,94402.00
2023-04-12T06:59:26.454Z,94401.00
2023-04-12T07:00:26.527Z,94401.00
2023-04-12T07:01:26.661Z,94401.00
2023-04-12T07:02:26.652Z,94399.00
2023-04-12T07:03:26.684Z,94399.00
2023-04-12T07:04:26.676Z,94395.00
2023-04-12T07:05:26.725Z,94391.00
2023-04-12T07:06:26.808Z,94395.00
2023-04-12T07:07:26.804Z,94389.00
2023-04-12T07:08:28.660Z,94389.00
2023-04-12T07:09:26.860Z,94387.00
2023-04-12T07:10:26.871Z,94387.00
2023-04-12T07:11:26.839Z,94385.00
2023-04-12T07:12:26.829Z,94387.00
2023-04-12T07:13:26.841Z,94387.00
2023-04-12T07:14:26.816Z,94387.00
2023-04-12T07:15:26.837Z,94387.00
2023-04-12T07:16:26.844Z,94387.00
2023-04-12T07:17:26.893Z,94381.00
2023-04-12T07:18:26.789Z,94375.00
2023-04-12T07:19:26.780Z,94375.00
2023-04-12T07:20:26.789Z,94377.00
2023-04-12T07:21:26.761Z,94379.00
2023-04-12T07:22:27.116Z,94383.00
2023-04-12T07:23:26.756Z,94381.00
2023-04-12T07:24:26.749Z,94375.00
2023-04-12T07:25:26.769Z,94375.00
2023-04-12T07:26:26.755Z,94363.00
2023-04-12T07:27:26.739Z,94365.00
2023-04-12T07:28:26.749Z,94361.00
2023-04-12T07:29:26.726Z,94355.00
2023-04-12T07:30:26.748Z,94353.00
2023-04-12T07:31:26.695Z,94353.00
2023-04-12T07:32:26.782Z,94353.00
2023-04-12T07:33:26.750Z,94353.00
2023-04-12T07:34:26.803Z,94355.00
2023-04-12T07:35:26.675Z,94357.00
2023-04-12T07:36:26.702Z,94355.00
2023-04-12T07:37:27.086Z,94352.00
2023-04-12T07:38:26.638Z,94352.00
2023-04-12T07:39:26.677Z,94346.00
2023-04-12T07:40:26.655Z,94350.00
2023-04-12T07:41:26.624Z,94352.00
2023-04-12T07:42:27.092Z,94350.00
2023-04-12T07:43:26.627Z,94353.00
2023-04-12T07:44:26.621Z,94352.00
2023-04-12T07:45:26.604Z,94352.00
2023-04-12T07:46:26.737Z,94353.00
2023-04-12T07:47:27.129Z,94352.00
2023-04-12T07:48:26.619Z,94350.00
2023-04-12T07:49:26.654Z,94352.00
2023-04-12T07:50:26.571Z,94352.00
2023-04-12T07:51:26.593Z,94348.00
2023-04-12T07:52:26.565Z,94350.00
2023-04-12T07:53:26.694Z,94352.00
2023-04-12T07:54:26.568Z,94352.00
2023-04-12T07:55:26.568Z,94350.00
2023-04-12T07:56:26.591Z,94350.00
2023-04-12T07:57:26.553Z,94346.00
2023-04-12T07:58:26.556Z,94344.00
2023-04-12T07:59:26.536Z,94346.00
2023-04-12T08:00:26.517Z,94344.00
2023-04-12T08:01:26.495Z,94340.00
2023-04-12T08:02:26.628Z,94342.00
2023-04-12T08:03:26.616Z,94342.00
2023-04-12T08:04:26.599Z,94338.00
2023-04-12T08:05:26.477Z,94340.00
2023-04-12T08:06:28.334Z,94340.00
2023-04-12T08:07:26.493Z,94340.00
2023-04-12T08:08:26.464Z,94342.00
2023-04-12T08:09:26.449Z,94340.00
2023-04-12T08:10:26.475Z,94340.00
2023-04-12T08:11:26.472Z,94342.00
2023-04-12T08:12:26.428Z,94338.00
2023-04-12T08:13:26.441Z,94340.00
2023-04-12T08:14:26.447Z,94340.00
2023-04-12T08:15:26.537Z,94348.00
2023-04-12T08:16:26.455Z,94348.00
2023-04-12T08:17:26.448Z,94348.00
2023-04-12T08:18:26.379Z,94348.00
2023-04-12T08:19:26.404Z,94346.00
2023-04-12T08:20:26.393Z,94346.00
2023-04-12T08:21:26.396Z,94350.00
2023-04-12T08:22:26.391Z,94352.00
2023-04-12T08:23:26.378Z,94355.00
2023-04-12T08:24:26.365Z,94361.00
2023-04-12T08:25:26.366Z,94361.00
2023-04-12T08:26:26.346Z,94361.00
2023-04-12T08:27:26.329Z,94361.00
2023-04-12T08:28:26.347Z,94357.00
2023-04-12T08:29:26.323Z,94357.00
2023-04-12T08:30:26.315Z,94359.00
2023-04-12T08:31:26.352Z,94361.00
2023-04-12T08:32:26.320Z,94361.00
2023-04-12T08:33:26.309Z,94365.00
2023-04-12T08:34:26.301Z,94359.00
2023-04-12T08:35:26.313Z,94357.00
2023-04-12T08:36:26.289Z,94353.00
2023-04-12T08:37:26.626Z,94357.00
2023-04-12T08:38:41.474Z,94357.00
2023-04-12T08:39:27.325Z,94353.00
2023-04-12T08:40:26.325Z,94348.00
2023-04-12T08:41:26.322Z,94348.00
2023-04-12T08:42:26.300Z,94342.00
2023-04-12T08:43:26.307Z,94336.00
2023-04-12T08:44:26.312Z,94336.00
2023-04-12T08:45:26.284Z,94328.00
2023-04-12T08:46:26.331Z,94324.00
2023-04-12T08:47:26.645Z,94324.00
2023-04-12T08:48:26.269Z,94326.00
2023-04-12T08:49:26.304Z,94326.00
2023-04-12T08:50:26.384Z,94324.00
2023-04-12T08:51:26.438Z,94326.00
2023-04-12T08:52:26.499Z,94320.00
2023-04-12T08:53:26.531Z,94318.00
2023-04-12T08:54:26.625Z,94314.00
2023-04-12T08:55:26.652Z,94312.00
2023-04-12T08:56:26.693Z,94312.00
2023-04-12T08:57:26.769Z,94312.00
2023-04-12T08:58:26.833Z,94312.00
2023-04-12T08:59:26.890Z,94306.00
2023-04-12T09:00:26.958Z,94303.00
2023-04-12T09:01:27.029Z,94303.00
2023-04-12T09:02:27.237Z,94301.00
2023-04-12T09:03:27.421Z,94306.00
2023-04-12T09:04:27.246Z,94308.00
2023-04-12T09:05:27.333Z,94308.00
2023-04-12T09:06:27.286Z,94306.00
2023-04-12T09:07:27.313Z,94305.00
2023-04-12T09:08:27.387Z,94301.00
2023-04-12T09:09:27.424Z,94305.00
2023-04-12T09:10:27.453Z,94305.00
2023-04-12T09:11:27.563Z,94301.00
2023-04-12T09:12:27.538Z,94301.00
2023-04-12T09:13:27.635Z,94301.00
2023-04-12T09:14:27.648Z,94299.00
2023-04-12T09:15:27.680Z,94295.00
2023-04-12T09:16:27.754Z,94297.00
2023-04-12T09:17:27.849Z,94293.00
2023-04-12T09:18:27.834Z,94291.00
2023-04-12T09:19:27.887Z,94291.00
2023-04-12T09:20:27.933Z,94287.00
2023-04-12T09:21:27.971Z,94283.00
2023-04-12T09:22:28.003Z,94283.00
2023-04-12T09:23:28.077Z,94279.00
2023-04-12T09:24:28.160Z,94275.00
2023-04-12T09:25:28.153Z,94271.00
2023-04-12T09:26:28.224Z,94269.00
2023-04-12T09:27:28.249Z,94267.00
2023-04-12T09:28:28.334Z,94265.00
2023-04-12T09:29:28.353Z,94265.00
2023-04-12T09:30:28.422Z,94271.00
2023-04-12T09:31:28.531Z,94271.00
2023-04-12T09:32:28.553Z,94269.00
2023-04-12T09:33:28.604Z,94273.00
2023-04-12T09:34:28.630Z,94265.00
2023-04-12T09:35:28.766Z,94263.00
2023-04-12T09:36:28.796Z,94259.00
2023-04-12T09:37:28.776Z,94261.00
2023-04-12T09:38:28.894Z,94259.00
2023-04-12T09:39:28.879Z,94259.00
2023-04-12T09:40:28.955Z,94252.00
2023-04-12T09:41:29.009Z,94246.00
2023-04-12T09:42:34.097Z,94244.00
2023-04-12T09:43:30.143Z,94242.00
2023-04-12T09:44:29.066Z,94242.00
2023-04-12T09:45:29.047Z,94242.00
2023-04-12T09:46:29.089Z,94238.00
2023-04-12T09:47:29.093Z,94232.00
2023-04-12T09:48:29.038Z,94234.00
2023-04-12T09:49:29.033Z,94232.00
2023-04-12T09:50:29.081Z,94234.00
2023-04-12T09:51:29.100Z,94230.00
2023-04-12T09:52:30.198Z,94228.00
2023-04-12T09:53:28.993Z,94226.00
2023-04-12T09:54:29.015Z,94224.00
2023-04-12T09:55:29.031Z,94222.00
2023-04-12T09:56:29.059Z,94222.00
2023-04-12T09:57:29.138Z,94216.00
2023-04-12T09:58:30.627Z,94216.00
2023-04-12T09:59:29.228Z,94211.00
2023-04-12T10:00:29.233Z,94209.00
2023-04-12T10:01:29.365Z,94203.00
2023-04-12T10:02:29.583Z,94201.00
2023-04-12T10:03:29.502Z,94195.00
2023-04-12T10:04:29.759Z,94193.00
2023-04-12T10:05:29.712Z,94187.00
2023-04-12T10:06:29.612Z,94185.00
2023-04-12T10:07:29.773Z,94179.00
2023-04-12T10:08:29.739Z,94177.00
2023-04-12T10:09:29.769Z,94173.00
2023-04-12T10:10:29.888Z,94169.00
2023-04-12T10:11:29.913Z,94167.00
2023-04-12T10:12:31.702Z,94167.00
2023-04-12T10:13:30.054Z,94161.00
2023-04-12T10:14:30.120Z,94159.00
2023-04-12T10:15:30.206Z,94154.00
2023-04-12T10:16:30.293Z,94152.00
2023-04-12T10:17:30.290Z,94154.00
2023-04-12T10:18:30.366Z,94150.00
2023-04-12T10:19:30.420Z,94146.00
2023-04-12T10:20:30.487Z,94140.00
2023-04-12T10:21:30.546Z,94136.00
2023-04-12T10:22:30.630Z,94130.00
2023-04-12T10:23:30.750Z,94126.00
2023-04-12T10:24:30.737Z,94128.00
2023-04-12T10:25:30.935Z,94122.00
2023-04-12T10:26:30.853Z,94124.00
2023-04-12T10:27:30.927Z,94122.00
2023-04-12T10:28:31.027Z,94120.00
2023-04-12T10:29:31.086Z,94122.00
2023-04-12T10:30:31.154Z,94111.00
2023-04-12T10:31:31.312Z,94118.00
2023-04-12T10:32:32.962Z,94111.00
2023-04-12T10:33:31.268Z,94111.00
2023-04-12T10:34:31.374Z,94109.00
2023-04-12T10:35:31.319Z,94109.00
2023-04-12T10:36:31.308Z,94109.00
2023-04-12T10:37:31.277Z,94103.00
2023-04-12T10:38:32.938Z,94101.00
2023-04-12T10:39:31.308Z,94099.00
2023-04-12T10:40:31.190Z,94097.00
2023-04-12T10:41:31.186Z,94097.00
2023-04-12T10:42:31.197Z,94095.00
2023-04-12T10:43:31.205Z,94093.00
2023-04-12T10:44:31.210Z,94091.00
2023-04-12T10:45:31.196Z,94089.00
2023-04-12T10:46:31.266Z,94087.00
2023-04-12T10:47:31.270Z,94089.00
2023-04-12T10:48:31.162Z,94085.00
2023-04-12T10:49:31.158Z,94085.00
2023-04-12T10:50:31.170Z,94081.00
2023-04-12T10:51:31.158Z,94083.00
2023-04-12T10:52:31.120Z,94077.00
2023-04-12T10:53:31.116Z,94075.00
2023-04-12T10:54:31.175Z,94073.00
2023-04-12T10:55:31.102Z,94071.00
2023-04-12T10:56:32.553Z,94067.00
2023-04-12T10:57:31.112Z,94060.00
2023-04-12T10:58:31.115Z,94058.00
2023-04-12T10:59:45.031Z,94056.00
2023-04-12T11:00:32.265Z,94050.00
2023-04-12T11:01:31.154Z,94052.00
2023-04-12T11:02:31.255Z,94052.00
2023-04-12T11:03:31.144Z,94052.00
2023-04-12T11:04:31.186Z,94050.00
2023-04-12T11:05:31.171Z,94042.00
2023-04-12T11:06:31.043Z,94036.00
2023-04-12T11:07:31.087Z,94036.00
2023-04-12T11:08:31.057Z,94032.00
2023-04-12T11:09:31.074Z,94028.00
2023-04-12T11:10:31.135Z,94026.00
2023-04-12T11:11:31.213Z,94028.00
2023-04-12T11:12:31.238Z,94020.00
2023-04-12T11:13:31.689Z,94016.00
2023-04-12T11:14:31.364Z,94014.00
2023-04-12T11:15:31.443Z,94010.00
2023-04-12T11:16:31.590Z,94012.00
2023-04-12T11:17:31.590Z,94012.00
2023-04-12T11:18:31.666Z,94014.00
2023-04-12T11:19:31.730Z,94016.00
2023-04-12T11:20:31.787Z,94010.00
2023-04-12T11:21:31.847Z,94009.00
2023-04-12T11:22:31.983Z,94005.00
2023-04-12T11:23:31.967Z,93997.00
2023-04-12T11:24:32.044Z,93995.00
2023-04-12T11:25:32.173Z,93989.00
2023-04-12T11:26:32.238Z,93989.00
2023-04-12T11:27:32.286Z,93991.00
2023-04-12T11:28:35.288Z,93991.00
2023-04-12T11:29:32.308Z,93989.00
2023-04-12T11:30:32.301Z,93981.00
2023-04-12T11:31:32.290Z,93979.00
2023-04-12T11:32:32.244Z,93975.00
2023-04-12T11:33:32.659Z,93975.00
2023-04-12T11:34:32.270Z,93967.00
2023-04-12T11:35:32.230Z,93965.00
2023-04-12T11:36:32.234Z,93960.00
2023-04-12T11:37:32.242Z,93956.00
2023-04-12T11:38:32.223Z,93960.00
2023-04-12T11:39:33.364Z,93956.00
2023-04-12T11:40:32.237Z,93958.00
2023-04-12T11:41:32.219Z,93952.00
2023-04-12T11:42:32.218Z,93950.00
2023-04-12T11:43:32.205Z,93946.00
2023-04-12T11:44:44.145Z,93944.00